EDT,Max TemperatureF,Mean TemperatureF,Min TemperatureF,Max Dew PointF,MeanDew PointF,Min DewpointF,Max Humidity, Mean Humidity, Min Humidity, Max Sea Level PressureIn, Mean Sea Level PressureIn, Min Sea Level PressureIn, Max VisibilityMiles, Mean VisibilityMiles, Min VisibilityMiles, Max Wind SpeedMPH, Mean Wind SpeedMPH, Max Gust SpeedMPH,PrecipitationIn, CloudCover, Events, WindDirDegrees
2013-8-1,75,68,60,64,61,59,100,80,60,30.07,29.97,29.88,10,9,5,15,8,20,0.17,5,Rain,207
2013-8-2,78,70,62,63,61,55,100,74,47,29.92,29.85,29.83,10,7,2,30,9,37,0.63,6,Rain-Thunderstorm,237
2013-8-3,75,68,60,62,59,58,100,79,57,29.90,29.86,29.82,10,10,10,17,10,23,0.00,1,,250
2013-8-4,75,66,57,56,53,51,84,65,46,29.93,29.86,29.82,10,10,10,21,11,29,T,1,,290
2013-8-5,72,63,53,51,45,36,89,59,28,30.07,29.99,29.92,10,10,10,23,11,30,0.00,0,,309
2013-8-6,74,64,53,56,47,40,84,63,41,30.16,30.13,30.07,10,10,10,10,5,15,0.00,0,,214
2013-8-7,75,66,57,58,55,50,93,69,44,30.20,30.17,30.14,10,10,10,15,9,19,T,1,,211
2013-8-8,77,70,63,69,66,59,100,85,69,30.13,30.08,30.04,10,9,3,16,11,21,0.09,7,Rain,202
2013-8-9,74,72,69,73,70,67,100,95,90,30.05,29.89,29.79,10,7,1,21,11,27,1.95,7,Rain,212
2013-8-10,78,69,59,69,58,48,100,70,40,30.04,29.93,29.84,10,10,9,22,13,28,0.00,1,,282
2013-8-11,75,65,54,55,51,48,78,61,44,30.11,30.07,30.04,10,10,10,15,7,20,0.00,1,,278
2013-8-12,77,68,58,61,56,52,93,68,43,30.05,30.01,29.95,10,10,10,14,8,17,0.00,1,,257
2013-8-13,71,67,63,66,62,58,100,87,73,29.93,29.81,29.72,10,10,5,15,7,20,0.02,5,Rain,200
2013-8-14,69,62,55,63,53,46,93,70,47,30.00,29.79,29.70,10,10,6,28,15,35,0.00,3,,287
2013-8-15,71,62,52,51,49,47,89,67,44,30.11,30.07,30.01,10,10,10,14,10,21,0.00,1,,279
2013-8-16,74,65,56,55,52,50,80,62,44,30.23,30.19,30.17,10,10,10,16,8,23,0.00,0,,256
2013-8-17,77,68,58,59,54,50,86,64,41,30.30,30.27,30.24,10,10,10,12,6,13,0.00,1,,268
2013-8-18,75,67,59,61,57,53,90,70,49,30.29,30.23,30.12,10,10,10,12,6,15,0.00,0,,240
2013-8-19,76,68,60,60,58,56,90,70,50,30.11,30.05,30.00,10,10,10,16,11,20,0.00,0,,273
2013-8-20,80,72,63,63,58,56,90,68,45,30.13,30.09,30.02,10,10,10,15,9,19,0.00,0,,286
2013-8-21,83,74,64,63,60,56,84,66,47,30.18,30.13,30.06,10,10,10,13,9,18,0.00,0,,269
2013-8-22,80,72,63,68,65,60,97,80,62,30.07,29.96,29.87,10,10,6,16,10,20,0.00,1,,241
2013-8-23,77,69,60,68,56,48,97,67,36,30.14,29.98,29.86,10,10,9,17,10,24,0.00,2,,339
2013-8-24,74,66,57,51,46,42,67,50,33,30.36,30.29,30.16,10,10,10,12,7,17,0.00,0,,9
2013-8-25,78,68,57,54,50,45,86,59,31,30.39,30.31,30.22,10,10,10,14,8,18,0.00,0,,263
2013-8-26,76,69,61,66,60,54,100,81,61,30.21,30.05,29.91,10,10,4,23,12,29,0.13,5,Rain,250
2013-8-27,82,75,67,68,66,63,100,77,54,29.93,29.89,29.86,10,7,1,12,6,16,0.15,5,Rain,47
2013-8-28,82,74,65,69,64,59,93,72,51,29.99,29.92,29.88,10,10,5,15,5,17,T,3,Rain,123
2013-8-29,65,62,58,64,62,57,100,95,90,30.09,30.04,29.96,10,5,0,14,7,19,0.04,8,Fog-Rain,48
2013-8-30,79,68,57,67,61,57,100,79,58,30.04,29.97,29.86,10,6,0,14,9,22,0.00,6,Fog,258
2013-8-31,76,72,67,70,69,65,100,91,82,29.87,29.85,29.82,10,5,1,16,10,20,T,7,Rain,225